Terminal Aerodrome Forecast
Issued by NWS Knoxville/Tri Cities, TN

Home | Current Version | Previous Version | Text Only | Print | Product List | Glossary On
Versions: 1 2 3 4 5 6 7 8 9 10 11 12 13 14 15
000
FTUS44 KMRX 290523
TAFCHA
TAF
KCHA 290523Z 2906/3006 00000KT P6SM SCT100 BKN200
     FM290900 00000KT 5SM BR SCT006 SCT080 SCT250
     FM291200 05003KT P6SM SCT250=

USA.gov is the U.S. government's official web portal to all federal, state and local government web resources and services.